Broaddus, Texas
Current Conditions -  °F | °C
As of 9:53 AM on Tuesday 21 Oct 2014 (Local Time) from KLFK Reporting Station
Clear Clear  
Wind Chill: 71°   Ceiling: Unl
Heat Index: 71°   Visibility: 10mi
Dew Point: 59°   Wind: 6mph
Humidity: 66%   Direction: 90°E
Pressure: 30.11"   Gusts: NA
Location:  31.31°N, 94.27°W
Report Text: KLFK 211453Z AUTO 09005KT 10SM CLR 22/15 A3011 RMK AO2 SLP194 T02170150 51018
Loading
Personal Weather Stations






























Interactive Weather Map
Tropical Storm Tracking
New forecast layout! Learn more

10-Day Weather Forecast

Advertisements
Track Severe Weather on mobile